createdAt,value
2022-09-25T00:00:15.430Z,83.30
2022-09-25T00:02:19.227Z,83.53
2022-09-25T00:04:22.898Z,83.39
2022-09-25T00:06:28.585Z,84.03
2022-09-25T00:08:32.176Z,83.38
2022-09-25T00:10:42.452Z,83.18
2022-09-25T00:12:46.149Z,83.67
2022-09-25T00:14:51.172Z,84.05
2022-09-25T00:16:54.780Z,83.65
2022-09-25T00:19:16.639Z,83.62
2022-09-25T00:21:20.448Z,83.88
2022-09-25T00:23:25.837Z,84.50
2022-09-25T00:25:29.615Z,84.30
2022-09-25T00:27:34.685Z,84.01
2022-09-25T00:29:40.062Z,83.80
2022-09-25T00:31:44.130Z,83.88
2022-09-25T00:33:47.661Z,84.17
2022-09-25T00:35:51.291Z,84.00
2022-09-25T00:37:55.001Z,84.35
2022-09-25T00:39:58.697Z,83.51
2022-09-25T00:42:02.164Z,83.64
2022-09-25T00:44:57.772Z,84.36
2022-09-25T00:47:01.639Z,83.91
2022-09-25T00:49:08.619Z,83.91
2022-09-25T00:51:12.758Z,83.85
2022-09-25T00:53:21.816Z,84.29
2022-09-25T00:55:25.352Z,84.38
2022-09-25T00:57:32.254Z,84.45
2022-09-25T00:59:42.614Z,84.57
2022-09-25T01:01:46.360Z,84.66
2022-09-25T01:03:49.839Z,85.25
2022-09-25T01:05:55.411Z,85.40
2022-09-25T01:08:02.543Z,85.39
2022-09-25T01:10:08.438Z,85.94
2022-09-25T01:12:11.753Z,86.04
2022-09-25T01:14:17.511Z,86.03
2022-09-25T01:16:33.079Z,85.86
2022-09-25T01:18:45.419Z,85.36
2022-09-25T01:21:05.416Z,86.67
2022-09-25T01:23:21.781Z,86.10
2022-09-25T01:25:35.901Z,86.34
2022-09-25T01:27:48.522Z,86.46
2022-09-25T01:29:58.729Z,86.01
2022-09-25T01:32:07.880Z,85.66
2022-09-25T01:34:20.222Z,86.00
2022-09-25T01:36:30.055Z,86.63
2022-09-25T01:38:38.294Z,86.85
2022-09-25T01:40:49.062Z,86.99
2022-09-25T01:42:56.798Z,86.34
2022-09-25T01:45:05.715Z,86.10
2022-09-25T01:47:12.191Z,86.03
2022-09-25T01:49:20.913Z,86.46
2022-09-25T01:51:28.706Z,87.42
2022-09-25T01:53:39.402Z,87.67
2022-09-25T01:55:48.094Z,87.09
2022-09-25T01:57:58.099Z,86.81
2022-09-25T02:00:08.802Z,87.88
2022-09-25T02:02:23.197Z,87.86
2022-09-25T02:04:31.856Z,88.78
2022-09-25T02:06:38.368Z,88.32
2022-09-25T02:08:46.226Z,88.72
2022-09-25T02:10:53.915Z,88.29
2022-09-25T02:13:03.976Z,88.02
2022-09-25T02:15:12.021Z,89.10
2022-09-25T02:17:36.686Z,87.92
2022-09-25T02:19:58.026Z,88.96
2022-09-25T02:22:06.492Z,88.81
2022-09-25T02:24:20.236Z,88.67
2022-09-25T02:26:28.147Z,89.36
2022-09-25T02:28:31.468Z,88.60
2022-09-25T02:30:36.337Z,89.05
2022-09-25T02:32:39.658Z,88.87
2022-09-25T02:34:43.315Z,89.15
2022-09-25T02:36:46.874Z,89.86
2022-09-25T02:38:51.616Z,89.10
2022-09-25T02:40:58.992Z,88.82
2022-09-25T02:43:11.635Z,89.06
2022-09-25T02:45:28.700Z,89.40
2022-09-25T02:47:36.948Z,88.76
2022-09-25T02:49:52.201Z,89.97
2022-09-25T02:52:03.931Z,89.02
2022-09-25T02:54:12.729Z,89.95
2022-09-25T02:56:23.770Z,89.64
2022-09-25T02:58:31.619Z,89.61
2022-09-25T03:00:36.795Z,89.37
2022-09-25T03:02:48.102Z,89.65
2022-09-25T03:04:56.031Z,90.42
2022-09-25T03:06:59.974Z,90.60
2022-09-25T03:09:03.408Z,89.96
2022-09-25T03:11:09.052Z,89.79
2022-09-25T03:13:17.687Z,90.14
2022-09-25T03:15:23.941Z,90.79
2022-09-25T03:17:27.820Z,90.78
2022-09-25T03:19:33.659Z,90.08
2022-09-25T03:21:37.145Z,90.79
2022-09-25T03:23:41.183Z,90.90
2022-09-25T03:25:49.717Z,90.63
2022-09-25T03:27:54.765Z,90.76
2022-09-25T03:29:58.339Z,90.46
2022-09-25T03:32:02.302Z,90.08
2022-09-25T03:34:07.071Z,90.45
2022-09-25T03:36:14.741Z,90.03
2022-09-25T03:38:18.224Z,90.57
2022-09-25T03:40:21.924Z,91.57
2022-09-25T03:42:28.612Z,90.85
2022-09-25T03:44:32.455Z,91.09
2022-09-25T03:46:36.954Z,90.62
2022-09-25T03:48:41.516Z,91.08
2022-09-25T03:50:46.334Z,90.78
2022-09-25T03:52:51.320Z,91.19
2022-09-25T03:54:54.895Z,92.38
2022-09-25T03:56:58.576Z,91.56
2022-09-25T03:59:02.311Z,91.82
2022-09-25T04:01:06.214Z,91.97
2022-09-25T04:03:09.843Z,91.34
2022-09-25T04:05:13.474Z,91.08
2022-09-25T04:07:17.128Z,92.02
2022-09-25T04:09:22.332Z,91.46
2022-09-25T04:11:26.637Z,92.46
2022-09-25T04:13:31.967Z,91.40
2022-09-25T04:15:35.762Z,91.92
2022-09-25T04:17:39.472Z,92.12
2022-09-25T04:19:43.090Z,91.40
2022-09-25T04:21:46.577Z,90.77
2022-09-25T04:24:04.118Z,91.44
2022-09-25T04:26:10.962Z,91.92
2022-09-25T04:28:14.558Z,91.74
2022-09-25T04:30:18.212Z,91.76
2022-09-25T04:32:39.261Z,91.33
2022-09-25T04:34:42.998Z,92.28
2022-09-25T04:36:46.895Z,92.32
2022-09-25T04:38:50.423Z,91.40
2022-09-25T04:40:54.062Z,91.29
2022-09-25T04:43:00.062Z,91.54
2022-09-25T04:45:03.682Z,92.60
2022-09-25T04:47:07.258Z,91.51
2022-09-25T04:49:11.667Z,92.15
2022-09-25T04:51:15.289Z,92.32
2022-09-25T04:53:19.234Z,91.56
2022-09-25T04:55:24.507Z,91.97
2022-09-25T04:57:53.931Z,92.28
2022-09-25T04:59:53.311Z,92.56
2022-09-25T05:01:57.524Z,92.54
2022-09-25T05:04:06.307Z,92.40
2022-09-25T05:06:12.285Z,91.88
2022-09-25T05:08:15.951Z,92.49
2022-09-25T05:10:20.384Z,91.92
2022-09-25T05:12:23.966Z,91.80
2022-09-25T05:14:27.539Z,92.29
2022-09-25T05:16:32.658Z,92.81
2022-09-25T05:18:36.467Z,92.05
2022-09-25T05:20:40.239Z,92.18
2022-09-25T05:22:43.976Z,92.24
2022-09-25T05:24:47.542Z,92.74
2022-09-25T05:26:51.043Z,92.38
2022-09-25T05:28:54.718Z,92.44
2022-09-25T05:31:01.481Z,92.44
2022-09-25T05:33:06.573Z,91.99
2022-09-25T05:35:10.265Z,92.41
2022-09-25T05:37:13.972Z,91.99
2022-09-25T05:39:17.397Z,91.92
2022-09-25T05:41:21.023Z,92.30
2022-09-25T05:43:25.621Z,92.04
2022-09-25T05:45:29.224Z,91.79
2022-09-25T05:47:33.141Z,91.80
2022-09-25T05:49:38.279Z,92.37
2022-09-25T05:51:41.883Z,91.97
2022-09-25T05:53:45.729Z,91.58
2022-09-25T05:55:52.485Z,91.60
2022-09-25T05:58:00.840Z,91.79
2022-09-25T06:00:05.620Z,92.05
2022-09-25T06:02:15.491Z,91.70
2022-09-25T06:04:19.078Z,91.49
2022-09-25T06:06:27.489Z,91.06
2022-09-25T06:08:32.491Z,91.12
2022-09-25T06:10:36.776Z,90.97
2022-09-25T06:12:40.321Z,91.10
2022-09-25T06:14:44.311Z,91.57
2022-09-25T06:16:50.056Z,91.12
2022-09-25T06:18:53.774Z,91.21
2022-09-25T06:21:02.931Z,91.00
2022-09-25T06:23:08.005Z,91.04
2022-09-25T06:25:12.218Z,90.42
2022-09-25T06:27:15.813Z,90.86
2022-09-25T06:29:19.317Z,90.42
2022-09-25T06:31:23.130Z,90.49
2022-09-25T06:33:26.653Z,90.53
2022-09-25T06:35:30.571Z,90.29
2022-09-25T06:37:34.117Z,90.33
2022-09-25T06:39:39.372Z,90.37
2022-09-25T06:41:42.944Z,91.08
2022-09-25T06:43:50.379Z,90.93
2022-09-25T06:45:54.119Z,90.61
2022-09-25T06:48:03.213Z,90.66
2022-09-25T06:50:08.542Z,90.45
2022-09-25T06:52:12.711Z,90.15
2022-09-25T06:54:16.375Z,89.96
2022-09-25T06:56:21.890Z,89.01
2022-09-25T06:58:27.005Z,89.04
2022-09-25T07:00:30.674Z,89.03
2022-09-25T07:02:51.586Z,88.90
2022-09-25T07:04:56.571Z,87.88
2022-09-25T07:07:01.986Z,87.47
2022-09-25T07:09:06.149Z,86.80
2022-09-25T07:11:09.732Z,85.63
2022-09-25T07:13:15.169Z,84.88
2022-09-25T07:15:18.844Z,84.56
2022-09-25T07:17:22.522Z,84.06
2022-09-25T07:19:27.881Z,83.56
2022-09-25T07:21:32.544Z,83.39
2022-09-25T07:23:36.600Z,82.81
2022-09-25T07:25:40.293Z,82.83
2022-09-25T07:27:43.967Z,82.79
2022-09-25T07:29:49.064Z,82.37
2022-09-25T07:31:52.836Z,82.27
2022-09-25T07:33:56.513Z,82.12
2022-09-25T07:36:03.148Z,81.87
2022-09-25T07:38:06.862Z,81.87
2022-09-25T07:40:14.950Z,82.22
2022-09-25T07:42:18.660Z,81.63
2022-09-25T07:44:28.952Z,81.47
2022-09-25T07:46:35.626Z,81.22
2022-09-25T07:48:39.392Z,80.86
2022-09-25T07:50:43.088Z,80.98
2022-09-25T07:52:46.681Z,81.47
2022-09-25T07:54:50.302Z,81.43
2022-09-25T07:56:53.884Z,81.29
2022-09-25T07:58:57.456Z,80.85
2022-09-25T08:01:02.622Z,80.87
2022-09-25T08:03:08.525Z,80.47
2022-09-25T08:05:13.233Z,80.12
2022-09-25T08:07:16.895Z,80.05
2022-09-25T08:09:21.613Z,79.72
2022-09-25T08:11:25.394Z,79.48
2022-09-25T08:13:29.445Z,79.28
2022-09-25T08:15:33.586Z,79.15
2022-09-25T08:17:37.351Z,79.40
2022-09-25T08:19:43.043Z,79.18
2022-09-25T08:21:47.014Z,78.97
2022-09-25T08:23:52.905Z,78.85
2022-09-25T08:25:57.703Z,78.66
2022-09-25T08:28:01.824Z,78.37
2022-09-25T08:30:06.103Z,78.47
2022-09-25T08:32:09.742Z,77.62
2022-09-25T08:34:39.455Z,77.14
2022-09-25T08:36:40.044Z,77.10
2022-09-25T08:38:43.875Z,77.08
2022-09-25T08:40:56.603Z,76.98
2022-09-25T08:43:01.214Z,76.25
2022-09-25T08:45:26.547Z,76.05
2022-09-25T08:47:48.585Z,75.65
2022-09-25T08:50:01.732Z,75.34
2022-09-25T08:52:10.251Z,75.93
2022-09-25T08:54:20.734Z,75.85
2022-09-25T08:56:25.897Z,75.62
2022-09-25T08:58:33.795Z,75.67
2022-09-25T09:00:37.848Z,75.96
2022-09-25T09:02:45.740Z,76.19
2022-09-25T09:04:52.679Z,76.30
2022-09-25T09:07:25.128Z,76.01
2022-09-25T09:09:29.500Z,76.26
2022-09-25T09:11:37.810Z,76.42
2022-09-25T09:13:47.763Z,76.73
2022-09-25T09:15:56.028Z,77.09
2022-09-25T09:18:03.781Z,77.41
2022-09-25T09:20:17.521Z,77.80
2022-09-25T09:22:27.871Z,78.10
2022-09-25T09:24:51.808Z,78.10
2022-09-25T09:27:22.525Z,78.68
2022-09-25T09:30:03.067Z,78.95
2022-09-25T09:32:37.680Z,78.83
2022-09-25T09:35:06.376Z,79.23
2022-09-25T09:37:19.489Z,79.30
2022-09-25T09:39:29.475Z,79.11
2022-09-25T09:41:50.921Z,79.37
2022-09-25T09:44:08.781Z,79.82
2022-09-25T09:46:22.218Z,79.45
2022-09-25T09:48:34.545Z,78.54
2022-09-25T09:50:52.128Z,78.77
2022-09-25T09:53:01.676Z,78.85
2022-09-25T09:55:20.743Z,79.46
2022-09-25T09:57:28.210Z,79.08
2022-09-25T09:59:40.270Z,78.62
2022-09-25T10:01:46.665Z,78.42
2022-09-25T10:03:57.492Z,79.03
2022-09-25T10:06:04.494Z,78.80
2022-09-25T10:08:08.251Z,78.73
2022-09-25T10:10:15.833Z,78.79
2022-09-25T10:12:30.397Z,78.35
2022-09-25T10:14:39.251Z,78.71
2022-09-25T10:16:43.348Z,78.34
2022-09-25T10:18:53.962Z,78.11
2022-09-25T10:21:01.648Z,76.65
2022-09-25T10:23:09.887Z,77.08
2022-09-25T10:25:36.594Z,76.99
2022-09-25T10:27:46.408Z,76.86
2022-09-25T10:30:03.119Z,77.52
2022-09-25T10:32:07.525Z,77.60
2022-09-25T10:34:24.192Z,78.09
2022-09-25T10:36:38.692Z,77.40
2022-09-25T10:38:53.461Z,78.36
2022-09-25T10:41:04.921Z,77.67
2022-09-25T10:43:20.691Z,77.21
2022-09-25T10:45:31.839Z,76.65
2022-09-25T10:47:52.825Z,76.00
2022-09-25T10:50:14.492Z,76.01
2022-09-25T10:52:20.090Z,75.81
2022-09-25T10:54:23.755Z,74.67
2022-09-25T10:56:36.014Z,74.25
2022-09-25T10:58:44.773Z,74.23
2022-09-25T11:00:58.023Z,74.17
2022-09-25T11:03:03.321Z,73.58
2022-09-25T11:05:09.190Z,72.96
2022-09-25T11:07:21.087Z,73.16
2022-09-25T11:09:26.683Z,73.37
2022-09-25T11:11:30.838Z,74.34
2022-09-25T11:13:42.215Z,73.23
2022-09-25T11:15:52.057Z,72.83
2022-09-25T11:17:57.253Z,72.66
2022-09-25T11:20:29.801Z,72.80
2022-09-25T11:22:38.702Z,72.44
2022-09-25T11:25:01.268Z,72.54
2022-09-25T11:27:12.323Z,72.11
2022-09-25T11:29:24.452Z,72.35
2022-09-25T11:31:37.131Z,72.43
2022-09-25T11:33:47.073Z,71.16
2022-09-25T11:35:54.765Z,71.41
2022-09-25T11:38:09.724Z,71.51
2022-09-25T11:40:48.952Z,70.90
2022-09-25T11:42:58.138Z,71.07
2022-09-25T11:45:08.926Z,71.42
2022-09-25T11:47:19.671Z,71.45
2022-09-25T11:49:25.822Z,70.02
2022-09-25T11:51:45.781Z,70.10
2022-09-25T11:54:17.865Z,70.42
2022-09-25T11:56:33.003Z,70.11
2022-09-25T11:58:59.112Z,70.31
2022-09-25T12:01:14.337Z,70.50
2022-09-25T12:03:39.210Z,69.99
2022-09-25T12:05:59.207Z,69.38
2022-09-25T12:08:19.631Z,69.58
2022-09-25T12:10:36.713Z,68.71
2022-09-25T12:12:49.371Z,69.14
2022-09-25T12:15:01.170Z,69.30
2022-09-25T12:17:12.606Z,68.45
2022-09-25T12:19:30.620Z,68.41
2022-09-25T12:21:42.034Z,68.61
2022-09-25T12:23:52.403Z,68.64
2022-09-25T12:26:20.830Z,68.93
2022-09-25T12:28:47.926Z,68.73
2022-09-25T12:31:05.253Z,69.83
2022-09-25T12:33:25.637Z,68.85
2022-09-25T12:35:41.365Z,69.31
2022-09-25T12:37:47.874Z,69.66
2022-09-25T12:39:56.038Z,70.03
2022-09-25T12:42:08.102Z,69.19
2022-09-25T12:44:22.412Z,68.79
2022-09-25T12:46:35.608Z,68.82
2022-09-25T12:48:46.423Z,68.85
2022-09-25T12:51:04.989Z,68.96
2022-09-25T12:53:23.574Z,68.60
2022-09-25T12:55:33.789Z,68.29
2022-09-25T12:57:45.946Z,68.62
2022-09-25T12:59:56.878Z,68.49
2022-09-25T13:02:07.342Z,68.52
2022-09-25T13:04:37.722Z,68.88
2022-09-25T13:06:52.069Z,67.83
2022-09-25T13:08:58.974Z,69.21
2022-09-25T13:11:08.502Z,69.53
2022-09-25T13:13:19.494Z,69.66
2022-09-25T13:15:25.415Z,70.23
2022-09-25T13:17:28.919Z,70.71
2022-09-25T13:19:35.480Z,70.92
2022-09-25T13:21:42.260Z,70.93
2022-09-25T13:23:51.670Z,71.28
2022-09-25T13:26:01.106Z,71.50
2022-09-25T13:28:09.201Z,71.67
2022-09-25T13:30:23.041Z,71.84
2022-09-25T13:32:32.262Z,71.93
2022-09-25T13:34:39.680Z,71.76
2022-09-25T13:36:48.394Z,72.06
2022-09-25T13:39:15.238Z,71.58
2022-09-25T13:41:18.809Z,71.96
2022-09-25T13:43:25.186Z,72.41
2022-09-25T13:45:33.749Z,72.58
2022-09-25T13:47:56.724Z,72.65
2022-09-25T13:50:18.823Z,72.53
2022-09-25T13:52:31.098Z,72.81
2022-09-25T13:54:36.236Z,72.95
2022-09-25T13:56:49.544Z,72.64
2022-09-25T13:59:26.746Z,72.99
2022-09-25T14:01:39.247Z,73.08
2022-09-25T14:03:46.305Z,73.06
2022-09-25T14:05:50.671Z,72.12
2022-09-25T14:08:01.919Z,72.38
2022-09-25T14:10:13.019Z,72.80
2022-09-25T14:12:25.090Z,72.33
2022-09-25T14:14:33.371Z,72.09
2022-09-25T14:16:43.668Z,72.83
2022-09-25T14:18:54.210Z,72.90
2022-09-25T14:21:00.718Z,72.75
2022-09-25T14:23:08.517Z,73.06
2022-09-25T14:25:35.155Z,73.24
2022-09-25T14:27:38.704Z,73.32
2022-09-25T14:29:43.282Z,73.61
2022-09-25T14:32:02.506Z,73.17
2022-09-25T14:34:19.966Z,73.48
2022-09-25T14:36:36.979Z,73.90
2022-09-25T14:38:56.080Z,74.26
2022-09-25T14:41:23.735Z,73.99
2022-09-25T14:44:00.947Z,73.42
2022-09-25T14:46:11.929Z,74.31
2022-09-25T14:48:19.444Z,74.23
2022-09-25T14:50:25.465Z,75.06
2022-09-25T14:52:32.279Z,75.23
2022-09-25T14:54:40.307Z,75.72
2022-09-25T14:56:48.721Z,76.13
2022-09-25T14:58:57.983Z,76.69
2022-09-25T15:01:18.217Z,77.46
2022-09-25T15:03:26.807Z,77.59
2022-09-25T15:05:33.224Z,77.73
2022-09-25T15:07:44.248Z,78.12
2022-09-25T15:09:49.473Z,78.28
2022-09-25T15:11:56.237Z,78.52
2022-09-25T15:14:11.787Z,78.95
2022-09-25T15:16:38.607Z,78.89
2022-09-25T15:18:45.767Z,79.10
2022-09-25T15:20:50.426Z,78.87
2022-09-25T15:22:57.525Z,79.05
2022-09-25T15:25:05.871Z,79.15
2022-09-25T15:27:17.222Z,79.45
2022-09-25T15:29:23.528Z,80.02
2022-09-25T15:31:27.654Z,79.66
2022-09-25T15:33:34.269Z,79.94
2022-09-25T15:35:37.869Z,80.47
2022-09-25T15:37:41.475Z,80.48
2022-09-25T15:39:45.974Z,80.48
2022-09-25T15:41:49.899Z,80.11
2022-09-25T15:44:13.826Z,80.24
2022-09-25T15:46:37.020Z,80.43
2022-09-25T15:48:42.931Z,80.69
2022-09-25T15:50:47.027Z,80.15
2022-09-25T15:52:52.794Z,80.28
2022-09-25T15:55:02.313Z,79.83
2022-09-25T15:57:11.475Z,80.08
2022-09-25T15:59:21.626Z,79.94
2022-09-25T16:01:46.486Z,79.72
2022-09-25T16:04:11.496Z,80.00
2022-09-25T16:06:17.189Z,80.17
2022-09-25T16:08:32.290Z,80.05
2022-09-25T16:10:36.115Z,80.39
2022-09-25T16:12:47.704Z,80.51
2022-09-25T16:14:53.415Z,80.63
2022-09-25T16:16:58.112Z,80.98
2022-09-25T16:19:22.673Z,80.75
2022-09-25T16:21:30.208Z,80.42
2022-09-25T16:23:34.037Z,80.62
2022-09-25T16:25:39.268Z,81.27
2022-09-25T16:27:46.952Z,81.19
2022-09-25T16:29:50.969Z,80.91
2022-09-25T16:32:04.015Z,81.62
2022-09-25T16:34:11.320Z,81.52
2022-09-25T16:36:19.004Z,81.39
2022-09-25T16:38:30.531Z,81.53
2022-09-25T16:40:39.696Z,81.39
2022-09-25T16:42:43.707Z,81.86
2022-09-25T16:44:50.636Z,81.80
2022-09-25T16:47:17.293Z,81.73
2022-09-25T16:49:21.265Z,82.57
2022-09-25T16:51:27.688Z,82.53
2022-09-25T16:53:31.811Z,83.17
2022-09-25T16:55:38.459Z,83.28
2022-09-25T16:57:46.136Z,83.81
2022-09-25T16:59:50.788Z,83.89
2022-09-25T17:01:57.446Z,84.26
2022-09-25T17:04:02.810Z,84.16
2022-09-25T17:06:07.108Z,84.47
2022-09-25T17:08:17.692Z,85.29
2022-09-25T17:10:23.930Z,85.87
2022-09-25T17:12:29.307Z,86.20
2022-09-25T17:14:32.995Z,86.70
2022-09-25T17:16:36.864Z,86.34
2022-09-25T17:18:41.458Z,87.07
2022-09-25T17:20:47.796Z,87.22
2022-09-25T17:22:52.109Z,87.40
2022-09-25T17:24:55.845Z,87.55
2022-09-25T17:26:59.566Z,88.36
2022-09-25T17:29:03.080Z,89.30
2022-09-25T17:31:07.852Z,89.77
2022-09-25T17:33:17.670Z,90.12
2022-09-25T17:35:35.240Z,90.23
2022-09-25T17:37:40.411Z,90.27
2022-09-25T17:39:44.020Z,90.77
2022-09-25T17:41:48.907Z,91.90
2022-09-25T17:43:53.037Z,91.87
2022-09-25T17:45:58.538Z,92.88
2022-09-25T17:48:03.128Z,93.31
2022-09-25T17:50:07.855Z,92.92
2022-09-25T17:52:22.870Z,92.91
2022-09-25T17:54:31.417Z,93.88
2022-09-25T17:56:36.344Z,93.68
2022-09-25T17:58:41.058Z,93.89
2022-09-25T18:00:45.969Z,94.74
2022-09-25T18:02:49.757Z,95.07
2022-09-25T18:04:53.368Z,95.45
2022-09-25T18:06:57.021Z,95.35
2022-09-25T18:09:01.035Z,96.35
2022-09-25T18:11:06.409Z,97.29
2022-09-25T18:13:15.065Z,98.16
2022-09-25T18:15:19.000Z,98.14
2022-09-25T18:17:22.633Z,98.71
2022-09-25T18:19:43.893Z,99.04
2022-09-25T18:22:04.644Z,99.67
2022-09-25T18:24:08.400Z,99.64
2022-09-25T18:26:13.580Z,100.00
2022-09-25T18:28:20.482Z,99.30
2022-09-25T18:30:25.040Z,100.00
2022-09-25T18:32:31.252Z,99.80
2022-09-25T18:34:36.453Z,99.93
2022-09-25T18:36:40.509Z,99.41
2022-09-25T18:38:44.289Z,99.36
2022-09-25T18:40:48.171Z,99.30
2022-09-25T18:42:53.780Z,98.99
2022-09-25T18:44:57.488Z,98.08
2022-09-25T18:47:02.302Z,97.72
2022-09-25T18:49:06.136Z,97.37
2022-09-25T18:51:09.909Z,96.73
2022-09-25T18:53:13.727Z,96.66
2022-09-25T18:55:17.780Z,96.71
2022-09-25T18:57:21.954Z,96.20
2022-09-25T18:59:28.386Z,95.70
2022-09-25T19:01:32.551Z,95.56
2022-09-25T19:03:40.779Z,94.32
2022-09-25T19:05:45.446Z,94.02
2022-09-25T19:07:49.412Z,93.85
2022-09-25T19:09:53.485Z,92.59
2022-09-25T19:11:57.752Z,92.11
2022-09-25T19:14:04.914Z,91.80
2022-09-25T19:16:11.266Z,91.72
2022-09-25T19:18:15.216Z,91.37
2022-09-25T19:20:19.127Z,90.77
2022-09-25T19:22:24.438Z,91.31
2022-09-25T19:24:28.231Z,91.21
2022-09-25T19:26:32.076Z,91.39
2022-09-25T19:28:36.865Z,91.62
2022-09-25T19:30:40.748Z,91.90
2022-09-25T19:32:45.929Z,91.76
2022-09-25T19:34:50.288Z,91.74
2022-09-25T19:36:54.121Z,91.30
2022-09-25T19:38:58.845Z,91.88
2022-09-25T19:41:03.414Z,92.11
2022-09-25T19:43:08.314Z,91.67
2022-09-25T19:45:14.273Z,92.28
2022-09-25T19:47:18.566Z,92.19
2022-09-25T19:49:24.032Z,92.44
2022-09-25T19:51:27.971Z,92.49
2022-09-25T19:53:31.717Z,92.81
2022-09-25T19:55:37.399Z,93.14
2022-09-25T19:57:40.982Z,93.42
2022-09-25T19:59:44.711Z,92.72
2022-09-25T20:01:48.665Z,93.16
2022-09-25T20:03:52.984Z,93.71
2022-09-25T20:05:58.726Z,93.35
2022-09-25T20:08:02.726Z,93.36
2022-09-25T20:10:07.334Z,94.03
2022-09-25T20:12:11.100Z,94.41
2022-09-25T20:14:15.005Z,94.57
2022-09-25T20:16:21.252Z,94.81
2022-09-25T20:18:25.036Z,94.61
2022-09-25T20:20:29.959Z,95.36
2022-09-25T20:22:35.142Z,95.29
2022-09-25T20:24:39.039Z,96.06
2022-09-25T20:26:42.596Z,96.38
2022-09-25T20:28:47.639Z,96.61
2022-09-25T20:30:51.600Z,97.28
2022-09-25T20:32:55.413Z,97.49
2022-09-25T20:34:59.479Z,98.54
2022-09-25T20:37:04.007Z,98.60
2022-09-25T20:39:10.020Z,98.88
2022-09-25T20:41:15.293Z,99.05
2022-09-25T20:43:19.486Z,99.94
2022-09-25T20:45:23.470Z,99.90
2022-09-25T20:47:29.687Z,100.00
2022-09-25T20:49:33.449Z,100.00
2022-09-25T20:51:37.782Z,100.00
2022-09-25T20:53:41.627Z,100.00
2022-09-25T20:55:46.803Z,100.00
2022-09-25T20:57:50.902Z,100.00
2022-09-25T20:59:57.345Z,100.00
2022-09-25T21:02:02.482Z,100.00
2022-09-25T21:04:08.845Z,100.00
2022-09-25T21:06:15.160Z,100.00
2022-09-25T21:08:18.950Z,100.00
2022-09-25T21:10:23.557Z,100.00
2022-09-25T21:12:29.717Z,100.00
2022-09-25T21:14:35.154Z,100.00
2022-09-25T21:16:38.824Z,100.00
2022-09-25T21:18:43.688Z,100.00
2022-09-25T21:20:47.694Z,100.00
2022-09-25T21:22:52.615Z,100.00
2022-09-25T21:24:56.347Z,100.00
2022-09-25T21:27:00.440Z,100.00
2022-09-25T21:29:06.690Z,100.00
2022-09-25T21:31:13.260Z,100.00
2022-09-25T21:33:17.150Z,100.00
2022-09-25T21:35:21.425Z,100.00
2022-09-25T21:37:25.357Z,100.00
2022-09-25T21:39:33.155Z,100.00
2022-09-25T21:41:37.789Z,100.00
2022-09-25T21:43:42.415Z,100.00
2022-09-25T21:45:47.859Z,100.00
2022-09-25T21:47:51.708Z,100.00
2022-09-25T21:49:56.887Z,100.00
2022-09-25T21:52:00.882Z,100.00
2022-09-25T21:54:07.737Z,100.00
2022-09-25T21:56:13.686Z,100.00
2022-09-25T21:58:17.573Z,100.00
2022-09-25T22:00:21.552Z,100.00
2022-09-25T22:02:26.701Z,100.00
2022-09-25T22:04:30.380Z,100.00
2022-09-25T22:06:39.937Z,100.00
2022-09-25T22:08:46.107Z,100.00
2022-09-25T22:10:56.506Z,100.00
2022-09-25T22:13:00.578Z,100.00
2022-09-25T22:15:05.187Z,100.00
2022-09-25T22:17:09.226Z,100.00
2022-09-25T22:19:17.240Z,100.00
2022-09-25T22:21:23.706Z,100.00
2022-09-25T22:23:27.719Z,100.00
2022-09-25T22:25:31.598Z,100.00
2022-09-25T22:27:35.245Z,100.00
2022-09-25T22:29:39.282Z,100.00
2022-09-25T22:31:44.555Z,100.00
2022-09-25T22:33:49.874Z,100.00
2022-09-25T22:36:01.592Z,100.00
2022-09-25T22:38:05.648Z,100.00
2022-09-25T22:40:10.189Z,100.00
2022-09-25T22:42:14.157Z,100.00
2022-09-25T22:44:18.213Z,100.00
2022-09-25T22:46:23.609Z,100.00
2022-09-25T22:48:27.446Z,100.00
2022-09-25T22:50:31.393Z,100.00
2022-09-25T22:52:37.652Z,100.00
2022-09-25T22:54:41.234Z,100.00
2022-09-25T22:56:45.409Z,100.00
2022-09-25T22:58:51.043Z,100.00
2022-09-25T23:00:54.707Z,100.00
2022-09-25T23:02:58.332Z,100.00
2022-09-25T23:05:06.370Z,100.00
2022-09-25T23:07:10.703Z,100.00
2022-09-25T23:09:17.000Z,100.00
2022-09-25T23:11:22.190Z,100.00
2022-09-25T23:13:26.278Z,100.00
2022-09-25T23:15:30.483Z,100.00
2022-09-25T23:17:34.796Z,100.00
2022-09-25T23:19:38.334Z,100.00
2022-09-25T23:21:42.646Z,100.00
2022-09-25T23:23:46.550Z,100.00
2022-09-25T23:25:51.674Z,100.00
2022-09-25T23:27:55.236Z,100.00
2022-09-25T23:29:59.826Z,100.00
2022-09-25T23:32:08.291Z,100.00
2022-09-25T23:34:12.493Z,100.00
2022-09-25T23:36:18.483Z,100.00
2022-09-25T23:38:22.168Z,100.00
2022-09-25T23:40:25.682Z,100.00
2022-09-25T23:42:31.010Z,100.00
2022-09-25T23:44:34.971Z,100.00
2022-09-25T23:46:40.827Z,100.00
2022-09-25T23:48:44.977Z,100.00
2022-09-25T23:50:50.227Z,100.00
2022-09-25T23:52:54.011Z,100.00
2022-09-25T23:54:58.030Z,100.00
2022-09-25T23:57:01.807Z,100.00
2022-09-25T23:59:07.048Z,100.00
